sensor_id;sensor_type;location;lat;lon;timestamp;P1;durP1;ratioP1;P2;durP2;ratioP2
74100;SDS011;62462;52.530;21.682;2023-04-25T00:00:27;10.32;;;7.18;;
74100;SDS011;62462;52.530;21.682;2023-04-25T00:02:53;11.10;;;7.40;;
74100;SDS011;62462;52.530;21.682;2023-04-25T00:05:21;10.95;;;6.95;;
74100;SDS011;62462;52.530;21.682;2023-04-25T00:07:48;13.90;;;7.60;;
74100;SDS011;62462;52.530;21.682;2023-04-25T00:10:14;14.63;;;7.35;;
74100;SDS011;62462;52.530;21.682;2023-04-25T00:12:41;10.43;;;7.80;;
74100;SDS011;62462;52.530;21.682;2023-04-25T00:15:07;12.55;;;8.07;;
74100;SDS011;62462;52.530;21.682;2023-04-25T00:17:34;11.45;;;7.80;;
74100;SDS011;62462;52.530;21.682;2023-04-25T00:20:00;10.73;;;7.43;;
74100;SDS011;62462;52.530;21.682;2023-04-25T00:22:30;14.07;;;7.35;;
74100;SDS011;62462;52.530;21.682;2023-04-25T00:24:56;14.98;;;7.55;;
74100;SDS011;62462;52.530;21.682;2023-04-25T00:27:25;9.68;;;7.15;;
74100;SDS011;62462;52.530;21.682;2023-04-25T00:29:51;14.80;;;7.63;;
74100;SDS011;62462;52.530;21.682;2023-04-25T00:32:17;10.55;;;7.20;;
74100;SDS011;62462;52.530;21.682;2023-04-25T00:34:42;13.23;;;7.25;;
74100;SDS011;62462;52.530;21.682;2023-04-25T00:37:08;9.90;;;6.88;;
74100;SDS011;62462;52.530;21.682;2023-04-25T00:39:34;11.40;;;7.18;;
74100;SDS011;62462;52.530;21.682;2023-04-25T00:42:00;11.23;;;7.18;;
74100;SDS011;62462;52.530;21.682;2023-04-25T00:44:27;14.93;;;7.78;;
74100;SDS011;62462;52.530;21.682;2023-04-25T00:46:54;14.10;;;7.93;;
74100;SDS011;62462;52.530;21.682;2023-04-25T00:49:20;11.95;;;7.25;;
74100;SDS011;62462;52.530;21.682;2023-04-25T00:51:46;10.55;;;7.78;;
74100;SDS011;62462;52.530;21.682;2023-04-25T00:54:12;13.38;;;7.47;;
74100;SDS011;62462;52.530;21.682;2023-04-25T00:56:38;15.30;;;7.70;;
74100;SDS011;62462;52.530;21.682;2023-04-25T00:59:05;12.50;;;6.95;;
74100;SDS011;62462;52.530;21.682;2023-04-25T01:01:31;10.90;;;7.53;;
74100;SDS011;62462;52.530;21.682;2023-04-25T01:03:58;12.40;;;7.57;;
74100;SDS011;62462;52.530;21.682;2023-04-25T01:06:24;10.48;;;7.47;;
74100;SDS011;62462;52.530;21.682;2023-04-25T01:08:50;13.30;;;8.32;;
74100;SDS011;62462;52.530;21.682;2023-04-25T01:11:17;12.82;;;7.88;;
74100;SDS011;62462;52.530;21.682;2023-04-25T01:13:43;10.90;;;7.90;;
74100;SDS011;62462;52.530;21.682;2023-04-25T01:16:09;11.15;;;8.23;;
74100;SDS011;62462;52.530;21.682;2023-04-25T01:18:35;11.57;;;8.18;;
74100;SDS011;62462;52.530;21.682;2023-04-25T01:21:07;11.10;;;8.57;;
74100;SDS011;62462;52.530;21.682;2023-04-25T01:23:41;10.82;;;8.70;;
74100;SDS011;62462;52.530;21.682;2023-04-25T01:26:08;15.07;;;9.50;;
74100;SDS011;62462;52.530;21.682;2023-04-25T01:28:36;14.85;;;10.05;;
74100;SDS011;62462;52.530;21.682;2023-04-25T01:31:04;13.18;;;8.38;;
74100;SDS011;62462;52.530;21.682;2023-04-25T01:33:30;18.70;;;9.75;;
74100;SDS011;62462;52.530;21.682;2023-04-25T01:35:56;15.10;;;10.20;;
74100;SDS011;62462;52.530;21.682;2023-04-25T01:38:22;13.13;;;9.77;;
74100;SDS011;62462;52.530;21.682;2023-04-25T01:40:48;14.32;;;9.48;;
74100;SDS011;62462;52.530;21.682;2023-04-25T01:43:16;10.73;;;9.63;;
74100;SDS011;62462;52.530;21.682;2023-04-25T01:45:42;11.70;;;9.25;;
74100;SDS011;62462;52.530;21.682;2023-04-25T01:48:08;11.25;;;8.70;;
74100;SDS011;62462;52.530;21.682;2023-04-25T01:50:35;13.70;;;9.02;;
74100;SDS011;62462;52.530;21.682;2023-04-25T01:53:02;14.18;;;9.43;;
74100;SDS011;62462;52.530;21.682;2023-04-25T01:55:29;14.95;;;9.88;;
74100;SDS011;62462;52.530;21.682;2023-04-25T01:57:54;13.23;;;9.48;;
74100;SDS011;62462;52.530;21.682;2023-04-25T02:00:20;12.80;;;9.27;;
74100;SDS011;62462;52.530;21.682;2023-04-25T02:02:46;16.70;;;10.00;;
74100;SDS011;62462;52.530;21.682;2023-04-25T02:05:12;13.52;;;9.45;;
74100;SDS011;62462;52.530;21.682;2023-04-25T02:07:37;12.65;;;9.27;;
74100;SDS011;62462;52.530;21.682;2023-04-25T02:10:03;13.93;;;9.10;;
74100;SDS011;62462;52.530;21.682;2023-04-25T02:12:30;11.75;;;8.70;;
74100;SDS011;62462;52.530;21.682;2023-04-25T02:14:56;16.23;;;10.68;;
74100;SDS011;62462;52.530;21.682;2023-04-25T02:17:22;12.80;;;9.90;;
74100;SDS011;62462;52.530;21.682;2023-04-25T02:19:48;13.70;;;10.77;;
74100;SDS011;62462;52.530;21.682;2023-04-25T02:22:15;15.05;;;9.77;;
74100;SDS011;62462;52.530;21.682;2023-04-25T02:24:40;13.40;;;10.00;;
74100;SDS011;62462;52.530;21.682;2023-04-25T02:27:06;12.95;;;10.40;;
74100;SDS011;62462;52.530;21.682;2023-04-25T02:29:32;12.52;;;9.48;;
74100;SDS011;62462;52.530;21.682;2023-04-25T02:31:58;13.05;;;9.60;;
74100;SDS011;62462;52.530;21.682;2023-04-25T02:34:24;20.52;;;9.45;;
74100;SDS011;62462;52.530;21.682;2023-04-25T02:36:50;15.38;;;10.43;;
74100;SDS011;62462;52.530;21.682;2023-04-25T02:39:16;12.82;;;9.65;;
74100;SDS011;62462;52.530;21.682;2023-04-25T02:41:42;14.55;;;9.48;;
74100;SDS011;62462;52.530;21.682;2023-04-25T02:44:07;13.98;;;9.98;;
74100;SDS011;62462;52.530;21.682;2023-04-25T02:46:33;14.98;;;9.75;;
74100;SDS011;62462;52.530;21.682;2023-04-25T02:48:59;16.10;;;11.23;;
74100;SDS011;62462;52.530;21.682;2023-04-25T02:51:24;14.07;;;11.27;;
74100;SDS011;62462;52.530;21.682;2023-04-25T02:53:51;14.38;;;10.07;;
74100;SDS011;62462;52.530;21.682;2023-04-25T02:56:17;15.13;;;10.13;;
74100;SDS011;62462;52.530;21.682;2023-04-25T02:58:42;14.95;;;10.48;;
74100;SDS011;62462;52.530;21.682;2023-04-25T03:01:08;16.73;;;11.50;;
74100;SDS011;62462;52.530;21.682;2023-04-25T03:03:34;17.63;;;11.05;;
74100;SDS011;62462;52.530;21.682;2023-04-25T03:06:00;14.45;;;10.68;;
74100;SDS011;62462;52.530;21.682;2023-04-25T03:08:25;17.50;;;12.13;;
74100;SDS011;62462;52.530;21.682;2023-04-25T03:10:54;13.40;;;11.40;;
74100;SDS011;62462;52.530;21.682;2023-04-25T03:13:20;16.00;;;11.18;;
74100;SDS011;62462;52.530;21.682;2023-04-25T03:15:46;16.48;;;12.10;;
74100;SDS011;62462;52.530;21.682;2023-04-25T03:18:11;14.95;;;11.65;;
74100;SDS011;62462;52.530;21.682;2023-04-25T03:20:37;15.48;;;11.93;;
74100;SDS011;62462;52.530;21.682;2023-04-25T03:23:04;17.55;;;13.80;;
74100;SDS011;62462;52.530;21.682;2023-04-25T03:25:30;19.95;;;13.00;;
74100;SDS011;62462;52.530;21.682;2023-04-25T03:27:56;18.33;;;13.10;;
74100;SDS011;62462;52.530;21.682;2023-04-25T03:30:22;19.48;;;13.43;;
74100;SDS011;62462;52.530;21.682;2023-04-25T03:32:47;18.98;;;13.02;;
74100;SDS011;62462;52.530;21.682;2023-04-25T03:35:13;20.60;;;13.75;;
74100;SDS011;62462;52.530;21.682;2023-04-25T03:37:39;16.23;;;12.77;;
74100;SDS011;62462;52.530;21.682;2023-04-25T03:40:05;17.77;;;13.57;;
74100;SDS011;62462;52.530;21.682;2023-04-25T03:42:32;16.52;;;13.15;;
74100;SDS011;62462;52.530;21.682;2023-04-25T03:44:57;19.60;;;13.82;;
74100;SDS011;62462;52.530;21.682;2023-04-25T03:47:23;21.30;;;15.68;;
74100;SDS011;62462;52.530;21.682;2023-04-25T03:49:49;19.15;;;14.52;;
74100;SDS011;62462;52.530;21.682;2023-04-25T03:52:16;19.15;;;13.88;;
74100;SDS011;62462;52.530;21.682;2023-04-25T03:54:42;23.65;;;13.93;;
74100;SDS011;62462;52.530;21.682;2023-04-25T03:57:08;21.58;;;15.15;;
74100;SDS011;62462;52.530;21.682;2023-04-25T03:59:35;22.05;;;14.90;;
74100;SDS011;62462;52.530;21.682;2023-04-25T04:02:01;23.95;;;16.95;;
74100;SDS011;62462;52.530;21.682;2023-04-25T04:04:26;23.70;;;16.38;;
74100;SDS011;62462;52.530;21.682;2023-04-25T04:06:52;25.02;;;17.00;;
74100;SDS011;62462;52.530;21.682;2023-04-25T04:09:18;22.27;;;16.35;;
74100;SDS011;62462;52.530;21.682;2023-04-25T04:11:45;26.42;;;16.52;;
74100;SDS011;62462;52.530;21.682;2023-04-25T04:14:11;27.30;;;18.60;;
74100;SDS011;62462;52.530;21.682;2023-04-25T04:16:37;24.80;;;17.13;;
74100;SDS011;62462;52.530;21.682;2023-04-25T04:19:02;29.50;;;17.50;;
74100;SDS011;62462;52.530;21.682;2023-04-25T04:21:28;30.52;;;17.90;;
74100;SDS011;62462;52.530;21.682;2023-04-25T04:23:55;24.95;;;17.42;;
74100;SDS011;62462;52.530;21.682;2023-04-25T04:26:22;26.63;;;17.25;;
74100;SDS011;62462;52.530;21.682;2023-04-25T04:28:51;23.25;;;16.73;;
74100;SDS011;62462;52.530;21.682;2023-04-25T04:31:19;25.75;;;16.50;;
74100;SDS011;62462;52.530;21.682;2023-04-25T04:33:46;24.30;;;16.48;;
74100;SDS011;62462;52.530;21.682;2023-04-25T04:36:12;25.65;;;16.67;;
74100;SDS011;62462;52.530;21.682;2023-04-25T04:38:38;26.52;;;17.63;;
74100;SDS011;62462;52.530;21.682;2023-04-25T04:41:05;23.73;;;16.65;;
74100;SDS011;62462;52.530;21.682;2023-04-25T04:43:31;25.58;;;16.67;;
74100;SDS011;62462;52.530;21.682;2023-04-25T04:45:58;22.77;;;16.45;;
74100;SDS011;62462;52.530;21.682;2023-04-25T04:48:25;22.15;;;15.73;;
74100;SDS011;62462;52.530;21.682;2023-04-25T04:50:51;22.83;;;16.42;;
74100;SDS011;62462;52.530;21.682;2023-04-25T04:53:17;22.52;;;16.02;;
74100;SDS011;62462;52.530;21.682;2023-04-25T04:55:43;22.73;;;15.90;;
74100;SDS011;62462;52.530;21.682;2023-04-25T04:58:09;22.90;;;16.33;;
74100;SDS011;62462;52.530;21.682;2023-04-25T05:00:35;24.95;;;15.93;;
74100;SDS011;62462;52.530;21.682;2023-04-25T05:03:00;23.75;;;15.43;;
74100;SDS011;62462;52.530;21.682;2023-04-25T05:05:26;23.85;;;15.30;;
74100;SDS011;62462;52.530;21.682;2023-04-25T05:07:52;22.20;;;14.70;;
74100;SDS011;62462;52.530;21.682;2023-04-25T05:10:18;19.38;;;13.73;;
74100;SDS011;62462;52.530;21.682;2023-04-25T05:12:45;24.38;;;15.27;;
74100;SDS011;62462;52.530;21.682;2023-04-25T05:15:11;19.55;;;14.13;;
74100;SDS011;62462;52.530;21.682;2023-04-25T05:17:36;22.80;;;14.32;;
74100;SDS011;62462;52.530;21.682;2023-04-25T05:20:03;18.63;;;13.20;;
74100;SDS011;62462;52.530;21.682;2023-04-25T05:22:30;17.73;;;13.27;;
74100;SDS011;62462;52.530;21.682;2023-04-25T05:24:56;18.45;;;12.68;;
74100;SDS011;62462;52.530;21.682;2023-04-25T05:27:22;22.20;;;14.48;;
74100;SDS011;62462;52.530;21.682;2023-04-25T05:29:48;19.60;;;13.38;;
74100;SDS011;62462;52.530;21.682;2023-04-25T05:32:13;20.95;;;14.43;;
74100;SDS011;62462;52.530;21.682;2023-04-25T05:34:39;19.52;;;13.32;;
74100;SDS011;62462;52.530;21.682;2023-04-25T05:37:05;18.23;;;12.52;;
74100;SDS011;62462;52.530;21.682;2023-04-25T05:39:31;19.35;;;12.82;;
74100;SDS011;62462;52.530;21.682;2023-04-25T05:41:57;19.38;;;12.77;;
74100;SDS011;62462;52.530;21.682;2023-04-25T05:44:22;17.35;;;12.50;;
74100;SDS011;62462;52.530;21.682;2023-04-25T05:46:48;18.38;;;12.93;;
74100;SDS011;62462;52.530;21.682;2023-04-25T05:49:14;14.63;;;11.63;;
74100;SDS011;62462;52.530;21.682;2023-04-25T05:51:40;16.58;;;12.07;;
74100;SDS011;62462;52.530;21.682;2023-04-25T05:54:05;16.77;;;12.00;;
74100;SDS011;62462;52.530;21.682;2023-04-25T05:56:31;15.85;;;12.10;;
74100;SDS011;62462;52.530;21.682;2023-04-25T05:58:57;19.98;;;11.80;;
74100;SDS011;62462;52.530;21.682;2023-04-25T06:01:23;15.05;;;11.98;;
74100;SDS011;62462;52.530;21.682;2023-04-25T06:03:49;15.75;;;11.80;;
74100;SDS011;62462;52.530;21.682;2023-04-25T06:06:16;13.63;;;11.63;;
74100;SDS011;62462;52.530;21.682;2023-04-25T06:08:42;18.40;;;12.65;;
74100;SDS011;62462;52.530;21.682;2023-04-25T06:11:07;17.33;;;11.48;;
74100;SDS011;62462;52.530;21.682;2023-04-25T06:13:33;17.42;;;12.27;;
74100;SDS011;62462;52.530;21.682;2023-04-25T06:15:59;15.18;;;11.10;;
74100;SDS011;62462;52.530;21.682;2023-04-25T06:18:25;20.45;;;11.95;;
74100;SDS011;62462;52.530;21.682;2023-04-25T06:20:51;14.32;;;10.60;;
74100;SDS011;62462;52.530;21.682;2023-04-25T06:23:16;14.00;;;10.30;;
74100;SDS011;62462;52.530;21.682;2023-04-25T06:25:42;14.73;;;11.15;;
74100;SDS011;62462;52.530;21.682;2023-04-25T06:28:08;14.75;;;10.40;;
74100;SDS011;62462;52.530;21.682;2023-04-25T06:30:33;13.13;;;10.18;;
74100;SDS011;62462;52.530;21.682;2023-04-25T06:32:59;12.43;;;9.20;;
74100;SDS011;62462;52.530;21.682;2023-04-25T06:35:25;13.98;;;9.80;;
74100;SDS011;62462;52.530;21.682;2023-04-25T06:37:52;12.23;;;9.38;;
74100;SDS011;62462;52.530;21.682;2023-04-25T06:40:17;12.98;;;8.98;;
74100;SDS011;62462;52.530;21.682;2023-04-25T06:42:43;15.20;;;8.90;;
74100;SDS011;62462;52.530;21.682;2023-04-25T06:45:09;12.00;;;8.85;;
74100;SDS011;62462;52.530;21.682;2023-04-25T06:47:35;10.05;;;8.25;;
74100;SDS011;62462;52.530;21.682;2023-04-25T06:50:01;11.90;;;9.02;;
74100;SDS011;62462;52.530;21.682;2023-04-25T06:52:27;11.45;;;9.07;;
74100;SDS011;62462;52.530;21.682;2023-04-25T06:54:52;12.55;;;9.35;;
74100;SDS011;62462;52.530;21.682;2023-04-25T06:57:18;16.27;;;9.65;;
74100;SDS011;62462;52.530;21.682;2023-04-25T06:59:44;10.05;;;8.13;;
74100;SDS011;62462;52.530;21.682;2023-04-25T07:02:10;13.02;;;9.52;;
74100;SDS011;62462;52.530;21.682;2023-04-25T07:04:35;11.00;;;8.60;;
74100;SDS011;62462;52.530;21.682;2023-04-25T07:07:01;9.70;;;7.95;;
74100;SDS011;62462;52.530;21.682;2023-04-25T07:09:28;14.90;;;8.95;;
74100;SDS011;62462;52.530;21.682;2023-04-25T07:11:54;11.13;;;7.53;;
74100;SDS011;62462;52.530;21.682;2023-04-25T07:14:21;12.63;;;8.38;;
74100;SDS011;62462;52.530;21.682;2023-04-25T07:16:47;12.10;;;8.48;;
74100;SDS011;62462;52.530;21.682;2023-04-25T07:19:14;11.25;;;7.32;;
74100;SDS011;62462;52.530;21.682;2023-04-25T07:21:40;10.13;;;7.97;;
74100;SDS011;62462;52.530;21.682;2023-04-25T07:24:06;11.98;;;8.23;;
74100;SDS011;62462;52.530;21.682;2023-04-25T07:26:32;12.55;;;9.18;;
74100;SDS011;62462;52.530;21.682;2023-04-25T07:28:58;11.98;;;8.20;;
74100;SDS011;62462;52.530;21.682;2023-04-25T07:31:24;14.00;;;8.88;;
74100;SDS011;62462;52.530;21.682;2023-04-25T07:33:50;11.93;;;8.27;;
74100;SDS011;62462;52.530;21.682;2023-04-25T07:36:15;11.48;;;7.80;;
74100;SDS011;62462;52.530;21.682;2023-04-25T07:38:41;13.80;;;9.10;;
74100;SDS011;62462;52.530;21.682;2023-04-25T07:41:07;13.50;;;9.40;;
74100;SDS011;62462;52.530;21.682;2023-04-25T07:43:32;11.50;;;9.15;;
74100;SDS011;62462;52.530;21.682;2023-04-25T07:45:58;11.20;;;8.25;;
74100;SDS011;62462;52.530;21.682;2023-04-25T07:48:24;11.65;;;8.68;;
74100;SDS011;62462;52.530;21.682;2023-04-25T07:50:50;9.48;;;7.80;;
74100;SDS011;62462;52.530;21.682;2023-04-25T07:53:16;13.05;;;8.68;;
74100;SDS011;62462;52.530;21.682;2023-04-25T07:55:43;11.07;;;7.82;;
74100;SDS011;62462;52.530;21.682;2023-04-25T07:58:09;10.70;;;7.50;;
74100;SDS011;62462;52.530;21.682;2023-04-25T08:00:36;13.20;;;8.73;;
74100;SDS011;62462;52.530;21.682;2023-04-25T08:03:01;11.80;;;8.93;;
74100;SDS011;62462;52.530;21.682;2023-04-25T08:05:28;11.93;;;8.05;;
74100;SDS011;62462;52.530;21.682;2023-04-25T08:07:54;9.95;;;7.60;;
74100;SDS011;62462;52.530;21.682;2023-04-25T08:10:21;11.05;;;7.38;;
74100;SDS011;62462;52.530;21.682;2023-04-25T08:12:48;11.13;;;7.78;;
74100;SDS011;62462;52.530;21.682;2023-04-25T08:15:14;9.38;;;7.20;;
74100;SDS011;62462;52.530;21.682;2023-04-25T08:17:40;7.88;;;6.50;;
74100;SDS011;62462;52.530;21.682;2023-04-25T08:20:06;8.18;;;5.78;;
74100;SDS011;62462;52.530;21.682;2023-04-25T08:22:32;7.35;;;5.88;;
74100;SDS011;62462;52.530;21.682;2023-04-25T08:24:58;7.85;;;6.03;;
74100;SDS011;62462;52.530;21.682;2023-04-25T08:27:24;6.25;;;5.30;;
74100;SDS011;62462;52.530;21.682;2023-04-25T08:29:50;7.97;;;5.88;;
74100;SDS011;62462;52.530;21.682;2023-04-25T08:32:16;8.23;;;6.35;;
74100;SDS011;62462;52.530;21.682;2023-04-25T08:34:43;7.80;;;6.28;;
74100;SDS011;62462;52.530;21.682;2023-04-25T08:37:09;9.25;;;7.05;;
74100;SDS011;62462;52.530;21.682;2023-04-25T08:39:38;10.50;;;6.70;;
74100;SDS011;62462;52.530;21.682;2023-04-25T08:42:05;11.27;;;7.00;;
74100;SDS011;62462;52.530;21.682;2023-04-25T08:44:35;8.82;;;6.80;;
74100;SDS011;62462;52.530;21.682;2023-04-25T08:47:04;7.50;;;5.65;;
74100;SDS011;62462;52.530;21.682;2023-04-25T08:49:33;10.52;;;5.88;;
74100;SDS011;62462;52.530;21.682;2023-04-25T08:52:00;9.45;;;5.55;;
74100;SDS011;62462;52.530;21.682;2023-04-25T08:54:27;7.15;;;5.45;;
74100;SDS011;62462;52.530;21.682;2023-04-25T08:56:54;6.32;;;5.43;;
74100;SDS011;62462;52.530;21.682;2023-04-25T08:59:22;6.65;;;4.50;;
74100;SDS011;62462;52.530;21.682;2023-04-25T09:01:51;5.47;;;4.72;;
74100;SDS011;62462;52.530;21.682;2023-04-25T09:04:17;7.07;;;4.50;;
74100;SDS011;62462;52.530;21.682;2023-04-25T09:06:44;4.20;;;3.75;;
74100;SDS011;62462;52.530;21.682;2023-04-25T09:09:10;6.43;;;4.28;;
74100;SDS011;62462;52.530;21.682;2023-04-25T09:11:37;5.45;;;3.58;;
74100;SDS011;62462;52.530;21.682;2023-04-25T09:19:22;5.55;;;4.22;;
74100;SDS011;62462;52.530;21.682;2023-04-25T09:21:50;4.45;;;3.88;;
74100;SDS011;62462;52.530;21.682;2023-04-25T09:24:16;5.55;;;4.82;;
74100;SDS011;62462;52.530;21.682;2023-04-25T09:26:54;5.28;;;4.25;;
74100;SDS011;62462;52.530;21.682;2023-04-25T09:29:20;6.90;;;4.40;;
74100;SDS011;62462;52.530;21.682;2023-04-25T09:32:10;4.95;;;3.60;;
74100;SDS011;62462;52.530;21.682;2023-04-25T09:34:39;4.93;;;4.30;;
74100;SDS011;62462;52.530;21.682;2023-04-25T09:37:09;4.60;;;4.20;;
74100;SDS011;62462;52.530;21.682;2023-04-25T09:39:38;5.57;;;4.68;;
74100;SDS011;62462;52.530;21.682;2023-04-25T09:42:04;4.45;;;4.00;;
74100;SDS011;62462;52.530;21.682;2023-04-25T09:44:30;4.10;;;3.70;;
74100;SDS011;62462;52.530;21.682;2023-04-25T09:46:56;5.28;;;4.05;;
74100;SDS011;62462;52.530;21.682;2023-04-25T09:49:22;5.15;;;4.10;;
74100;SDS011;62462;52.530;21.682;2023-04-25T09:51:56;4.25;;;3.60;;
74100;SDS011;62462;52.530;21.682;2023-04-25T09:54:23;5.20;;;4.45;;
74100;SDS011;62462;52.530;21.682;2023-04-25T09:56:53;6.53;;;4.78;;
74100;SDS011;62462;52.530;21.682;2023-04-25T09:59:21;5.85;;;5.20;;
74100;SDS011;62462;52.530;21.682;2023-04-25T10:01:50;5.93;;;4.85;;
74100;SDS011;62462;52.530;21.682;2023-04-25T10:04:22;6.28;;;5.03;;
74100;SDS011;62462;52.530;21.682;2023-04-25T10:06:51;7.07;;;5.00;;
74100;SDS011;62462;52.530;21.682;2023-04-25T10:09:20;5.53;;;4.80;;
74100;SDS011;62462;52.530;21.682;2023-04-25T10:11:48;7.45;;;4.97;;
74100;SDS011;62462;52.530;21.682;2023-04-25T10:14:15;5.35;;;4.10;;
74100;SDS011;62462;52.530;21.682;2023-04-25T10:16:42;4.80;;;3.70;;
74100;SDS011;62462;52.530;21.682;2023-04-25T10:19:09;4.93;;;3.70;;
74100;SDS011;62462;52.530;21.682;2023-04-25T10:21:35;4.30;;;3.90;;
74100;SDS011;62462;52.530;21.682;2023-04-25T10:24:13;7.07;;;4.47;;
74100;SDS011;62462;52.530;21.682;2023-04-25T10:30:04;6.80;;;4.30;;
74100;SDS011;62462;52.530;21.682;2023-04-25T10:32:36;5.60;;;4.13;;
74100;SDS011;62462;52.530;21.682;2023-04-25T10:35:12;4.75;;;4.22;;
74100;SDS011;62462;52.530;21.682;2023-04-25T10:37:38;9.93;;;5.03;;
74100;SDS011;62462;52.530;21.682;2023-04-25T10:40:09;5.95;;;4.45;;
74100;SDS011;62462;52.530;21.682;2023-04-25T10:42:36;6.85;;;4.55;;
74100;SDS011;62462;52.530;21.682;2023-04-25T10:45:02;4.43;;;3.85;;
74100;SDS011;62462;52.530;21.682;2023-04-25T10:47:36;5.47;;;3.90;;
74100;SDS011;62462;52.530;21.682;2023-04-25T10:50:08;6.00;;;4.43;;
74100;SDS011;62462;52.530;21.682;2023-04-25T10:52:34;5.13;;;4.15;;
74100;SDS011;62462;52.530;21.682;2023-04-25T10:55:00;7.72;;;4.30;;
74100;SDS011;62462;52.530;21.682;2023-04-25T10:57:29;6.07;;;4.40;;
74100;SDS011;62462;52.530;21.682;2023-04-25T11:02:49;5.30;;;4.28;;
74100;SDS011;62462;52.530;21.682;2023-04-25T11:05:22;5.22;;;4.72;;
74100;SDS011;62462;52.530;21.682;2023-04-25T11:07:51;7.22;;;4.70;;
74100;SDS011;62462;52.530;21.682;2023-04-25T11:10:24;15.25;;;11.15;;
74100;SDS011;62462;52.530;21.682;2023-04-25T11:12:54;6.30;;;5.25;;
74100;SDS011;62462;52.530;21.682;2023-04-25T11:15:20;5.85;;;4.90;;
74100;SDS011;62462;52.530;21.682;2023-04-25T11:17:46;4.63;;;4.13;;
74100;SDS011;62462;52.530;21.682;2023-04-25T11:20:12;5.45;;;4.95;;
74100;SDS011;62462;52.530;21.682;2023-04-25T11:22:39;10.85;;;6.93;;
74100;SDS011;62462;52.530;21.682;2023-04-25T11:25:09;12.32;;;7.03;;
74100;SDS011;62462;52.530;21.682;2023-04-25T11:27:48;8.90;;;5.75;;
74100;SDS011;62462;52.530;21.682;2023-04-25T11:30:15;7.07;;;5.30;;
74100;SDS011;62462;52.530;21.682;2023-04-25T11:32:41;7.75;;;5.57;;
74100;SDS011;62462;52.530;21.682;2023-04-25T11:35:10;6.15;;;5.10;;
74100;SDS011;62462;52.530;21.682;2023-04-25T11:37:39;6.07;;;5.05;;
74100;SDS011;62462;52.530;21.682;2023-04-25T11:40:06;7.45;;;5.57;;
74100;SDS011;62462;52.530;21.682;2023-04-25T11:42:36;6.10;;;5.18;;
74100;SDS011;62462;52.530;21.682;2023-04-25T11:45:08;10.45;;;6.53;;
74100;SDS011;62462;52.530;21.682;2023-04-25T11:47:35;10.52;;;6.50;;
74100;SDS011;62462;52.530;21.682;2023-04-25T11:50:05;9.90;;;5.82;;
74100;SDS011;62462;52.530;21.682;2023-04-25T11:52:39;11.48;;;6.65;;
74100;SDS011;62462;52.530;21.682;2023-04-25T11:55:09;16.15;;;7.13;;
74100;SDS011;62462;52.530;21.682;2023-04-25T11:57:39;7.93;;;6.47;;
74100;SDS011;62462;52.530;21.682;2023-04-25T12:00:07;7.22;;;6.10;;
74100;SDS011;62462;52.530;21.682;2023-04-25T12:02:44;8.95;;;6.50;;
74100;SDS011;62462;52.530;21.682;2023-04-25T12:05:11;10.45;;;7.28;;
74100;SDS011;62462;52.530;21.682;2023-04-25T12:07:38;7.40;;;6.47;;
74100;SDS011;62462;52.530;21.682;2023-04-25T12:10:04;8.07;;;6.63;;
74100;SDS011;62462;52.530;21.682;2023-04-25T12:12:32;7.47;;;6.78;;
74100;SDS011;62462;52.530;21.682;2023-04-25T12:15:07;6.88;;;5.97;;
74100;SDS011;62462;52.530;21.682;2023-04-25T12:17:52;9.45;;;7.30;;
74100;SDS011;62462;52.530;21.682;2023-04-25T12:20:20;10.15;;;7.78;;
74100;SDS011;62462;52.530;21.682;2023-04-25T12:22:50;7.43;;;6.63;;
74100;SDS011;62462;52.530;21.682;2023-04-25T12:33:30;9.65;;;7.50;;
74100;SDS011;62462;52.530;21.682;2023-04-25T12:35:57;9.35;;;6.90;;
74100;SDS011;62462;52.530;21.682;2023-04-25T12:38:27;9.70;;;6.90;;
74100;SDS011;62462;52.530;21.682;2023-04-25T12:40:59;8.43;;;7.38;;
74100;SDS011;62462;52.530;21.682;2023-04-25T12:43:24;9.35;;;6.90;;
74100;SDS011;62462;52.530;21.682;2023-04-25T12:45:51;10.57;;;7.65;;
74100;SDS011;62462;52.530;21.682;2023-04-25T12:48:18;8.95;;;7.82;;
74100;SDS011;62462;52.530;21.682;2023-04-25T12:50:45;11.20;;;7.80;;
74100;SDS011;62462;52.530;21.682;2023-04-25T12:53:14;10.07;;;8.68;;
74100;SDS011;62462;52.530;21.682;2023-04-25T12:55:44;9.07;;;7.88;;
74100;SDS011;62462;52.530;21.682;2023-04-25T12:58:16;13.57;;;7.55;;
74100;SDS011;62462;52.530;21.682;2023-04-25T13:00:43;12.98;;;8.82;;
74100;SDS011;62462;52.530;21.682;2023-04-25T13:03:10;14.82;;;10.80;;
74100;SDS011;62462;52.530;21.682;2023-04-25T13:05:36;15.52;;;10.65;;
74100;SDS011;62462;52.530;21.682;2023-04-25T13:08:03;13.18;;;10.15;;
74100;SDS011;62462;52.530;21.682;2023-04-25T13:10:29;13.73;;;10.02;;
74100;SDS011;62462;52.530;21.682;2023-04-25T13:12:55;17.50;;;12.32;;
74100;SDS011;62462;52.530;21.682;2023-04-25T13:15:20;11.00;;;9.75;;
74100;SDS011;62462;52.530;21.682;2023-04-25T13:17:47;12.57;;;11.23;;
74100;SDS011;62462;52.530;21.682;2023-04-25T13:20:12;12.93;;;10.85;;
74100;SDS011;62462;52.530;21.682;2023-04-25T13:25:30;12.10;;;10.80;;
74100;SDS011;62462;52.530;21.682;2023-04-25T13:27:56;10.88;;;9.40;;
74100;SDS011;62462;52.530;21.682;2023-04-25T13:30:22;16.40;;;10.82;;
74100;SDS011;62462;52.530;21.682;2023-04-25T13:32:47;13.73;;;11.20;;
74100;SDS011;62462;52.530;21.682;2023-04-25T13:35:13;11.63;;;8.77;;
74100;SDS011;62462;52.530;21.682;2023-04-25T13:37:40;19.05;;;17.05;;
74100;SDS011;62462;52.530;21.682;2023-04-25T13:40:07;11.20;;;9.02;;
74100;SDS011;62462;52.530;21.682;2023-04-25T13:42:35;9.82;;;8.38;;
74100;SDS011;62462;52.530;21.682;2023-04-25T13:45:01;10.73;;;8.32;;
74100;SDS011;62462;52.530;21.682;2023-04-25T13:47:28;11.05;;;7.95;;
74100;SDS011;62462;52.530;21.682;2023-04-25T13:49:55;12.07;;;9.82;;
74100;SDS011;62462;52.530;21.682;2023-04-25T13:52:21;11.63;;;8.93;;
74100;SDS011;62462;52.530;21.682;2023-04-25T13:54:49;11.48;;;8.98;;
74100;SDS011;62462;52.530;21.682;2023-04-25T13:57:16;11.50;;;8.55;;
74100;SDS011;62462;52.530;21.682;2023-04-25T13:59:42;12.88;;;9.30;;
74100;SDS011;62462;52.530;21.682;2023-04-25T14:02:08;10.02;;;8.80;;
74100;SDS011;62462;52.530;21.682;2023-04-25T14:04:34;15.65;;;10.10;;
74100;SDS011;62462;52.530;21.682;2023-04-25T14:07:00;20.63;;;15.32;;
74100;SDS011;62462;52.530;21.682;2023-04-25T14:09:27;13.40;;;10.75;;
74100;SDS011;62462;52.530;21.682;2023-04-25T14:11:54;15.05;;;10.60;;
74100;SDS011;62462;52.530;21.682;2023-04-25T14:14:21;14.65;;;9.95;;
74100;SDS011;62462;52.530;21.682;2023-04-25T14:16:47;12.27;;;9.35;;
74100;SDS011;62462;52.530;21.682;2023-04-25T14:19:14;12.88;;;9.50;;
74100;SDS011;62462;52.530;21.682;2023-04-25T14:21:40;15.05;;;8.88;;
74100;SDS011;62462;52.530;21.682;2023-04-25T14:24:06;13.93;;;8.93;;
74100;SDS011;62462;52.530;21.682;2023-04-25T14:26:33;10.63;;;8.55;;
74100;SDS011;62462;52.530;21.682;2023-04-25T14:29:00;11.45;;;8.25;;
74100;SDS011;62462;52.530;21.682;2023-04-25T14:31:26;9.70;;;8.20;;
74100;SDS011;62462;52.530;21.682;2023-04-25T14:33:53;10.13;;;8.00;;
74100;SDS011;62462;52.530;21.682;2023-04-25T14:36:19;12.30;;;8.88;;
74100;SDS011;62462;52.530;21.682;2023-04-25T14:38:45;11.40;;;8.40;;
74100;SDS011;62462;52.530;21.682;2023-04-25T14:41:11;12.93;;;9.57;;